Time;durP1;ratioP1;P1;durP2;ratioP2;P2;SDS_P1;SDS_P2;PMS_P1;PMS_P2;Temp;Humidity;BMP_temperature;BMP_pressure;BME280_temperature;BME280_humidity;BME280_pressure;Samples;Min_cycle;Max_cycle;Signal;HPM_P1;HPM_P2
2021/11/14 00:02:57;;;;;;;;;;;;;;;2.22;100.00;95132.53;10440490;28;19916;-75
2021/11/14 00:07:57;;;;;;;;;;;;;;;2.22;100.00;95129.06;10443137;28;19912;-74
2021/11/14 00:12:57;;;;;;;;;;;;;;;2.23;100.00;95128.03;10442895;28;19909;-75
2021/11/14 00:17:58;;;;;;;;;;;;;;;2.19;100.00;95140.06;10443207;28;19915;-74
2021/11/14 00:22:58;;;;;;;;;;;;;;;2.22;100.00;95137.03;10444462;28;20377;-72
2021/11/14 00:27:58;;;;;;;;;;;;;;;2.16;100.00;95136.03;10442792;28;20382;-73
2021/11/14 00:32:59;;;;;;;;;;;;;;;2.19;100.00;95134.75;10442607;28;20355;-72
2021/11/14 00:38:00;;;;;;;;;;;;;;;2.08;100.00;95138.06;10441802;28;19921;-75
2021/11/14 00:43:01;;;;;;;;;;;;;;;1.98;100.00;95134.06;10440806;28;19923;-73
2021/11/14 00:48:01;;;;;;;;;;;;;;;1.95;100.00;95136.28;10435725;28;20375;-74
2021/11/14 00:53:02;;;;;;;;;;;;;;;1.73;100.00;95141.03;10400781;28;19916;-74
2021/11/14 00:58:02;;;;;;;;;;;;;;;1.79;100.00;95137.56;10400704;28;19909;-72
2021/11/14 01:03:04;;;;;;;;;;;;;;;1.90;100.00;95134.28;10406042;28;19909;-75
2021/11/14 01:08:04;;;;;;;;;;;;;;;1.85;100.00;95131.44;10400264;28;19909;-73
2021/11/14 01:13:05;;;;;;;;;;;;;;;1.80;100.00;95137.38;10408324;28;19908;-77
2021/11/14 01:18:05;;;;;;;;;;;;;;;1.75;100.00;95126.56;10441478;28;20053;-74
2021/11/14 01:23:07;;;;;;;;;;;;;;;1.65;100.00;95121.69;10422008;28;19909;-74
2021/11/14 01:28:08;;;;;;;;;;;;;;;1.57;100.00;95115.81;10399800;28;19916;-71
2021/11/14 01:33:09;;;;;;;;;;;;;;;1.50;100.00;95111.34;10420546;28;19916;-75
2021/11/14 01:38:10;;;;;;;;;;;;;;;1.44;100.00;95114.81;10440129;28;19936;-78
2021/11/14 01:43:12;;;;;;;;;;;;;;;1.38;100.00;95110.31;10434380;28;20365;-73
2021/11/14 01:48:13;;;;;;;;;;;;;;;1.35;100.00;95116.03;10399606;28;19917;-74
2021/11/14 01:53:14;;;;;;;;;;;;;;;1.37;100.00;95119.31;10399966;28;20408;-75
2021/11/14 01:58:16;;;;;;;;;;;;;;;1.41;100.00;95115.25;10376717;28;20359;-77
2021/11/14 02:03:17;;;;;;;;;;;;;;;1.29;100.00;95115.03;10382953;28;20028;-73
2021/11/14 02:08:17;;;;;;;;;;;;;;;1.33;100.00;95110.16;10382426;28;19913;-76
2021/11/14 02:13:18;;;;;;;;;;;;;;;1.25;100.00;95110.38;10366770;28;20008;-74
2021/11/14 02:18:19;;;;;;;;;;;;;;;1.24;100.00;95111.38;10365711;28;19909;-74
2021/11/14 02:23:20;;;;;;;;;;;;;;;1.39;100.00;95108.50;10372134;28;19912;-78
2021/11/14 02:28:22;;;;;;;;;;;;;;;1.42;100.00;95116.84;10406659;28;20465;-76
2021/11/14 02:33:23;;;;;;;;;;;;;;;1.48;100.00;95105.44;10422297;28;20000;-73
2021/11/14 02:38:23;;;;;;;;;;;;;;;1.45;100.00;95115.63;10404037;28;20309;-75
2021/11/14 02:43:24;;;;;;;;;;;;;;;1.50;100.00;95111.34;10404590;28;19960;-73
2021/11/14 02:48:24;;;;;;;;;;;;;;;1.53;100.00;95118.06;10405207;28;19909;-76
2021/11/14 02:53:26;;;;;;;;;;;;;;;1.53;100.00;95120.69;10404774;28;19916;-73
2021/11/14 02:58:28;;;;;;;;;;;;;;;1.50;100.00;95116.63;10404802;28;19913;-75
2021/11/14 03:03:29;;;;;;;;;;;;;;;1.39;100.00;95113.81;10404145;28;19917;-75
2021/11/14 03:08:29;;;;;;;;;;;;;;;1.39;100.00;95117.25;10427725;28;20382;-76
2021/11/14 03:13:30;;;;;;;;;;;;;;;1.40;100.00;95110.16;10442655;28;20416;-74
2021/11/14 03:18:30;;;;;;;;;;;;;;;1.32;100.00;95121.75;10435918;28;19939;-74
2021/11/14 03:23:31;;;;;;;;;;;;;;;1.33;100.00;95112.81;10404326;28;19917;-74
2021/11/14 03:28:32;;;;;;;;;;;;;;;1.38;100.00;95117.47;10403129;28;20430;-74
2021/11/14 03:33:32;;;;;;;;;;;;;;;1.45;100.00;95115.63;10403428;28;20283;-74
2021/11/14 03:38:35;;;;;;;;;;;;;;;1.34;100.00;95120.53;10402184;28;19924;-79
2021/11/14 03:43:36;;;;;;;;;;;;;;;1.31;100.00;95122.78;10402470;28;19913;-74
2021/11/14 03:48:38;;;;;;;;;;;;;;;1.23;100.00;95122.97;10402308;28;19909;-74
2021/11/14 03:53:39;;;;;;;;;;;;;;;1.12;100.00;95127.88;10418646;28;19915;-82
2021/11/14 03:58:39;;;;;;;;;;;;;;;1.03;100.00;95129.09;10402527;28;20396;-76
2021/11/14 04:03:40;;;;;;;;;;;;;;;1.04;100.00;95136.03;10402158;28;19913;-78
2021/11/14 04:08:41;;;;;;;;;;;;;;;1.02;100.00;95138.88;10402127;28;19967;-81
2021/11/14 04:13:41;;;;;;;;;;;;;;;0.95;100.00;95131.94;10401731;28;20007;-76
2021/11/14 04:18:41;;;;;;;;;;;;;;;0.93;100.00;95137.44;10418187;28;19909;-81
2021/11/14 04:23:42;;;;;;;;;;;;;;;0.89;100.00;95146.00;10400939;28;19916;-74
2021/11/14 04:28:42;;;;;;;;;;;;;;;0.83;100.00;95158.19;10402251;28;19917;-76
2021/11/14 04:33:42;;;;;;;;;;;;;;;0.92;100.00;95149.06;10401514;28;19971;-76
2021/11/14 04:38:43;;;;;;;;;;;;;;;0.83;100.00;95147.63;10400520;28;19960;-75
2021/11/14 04:43:43;;;;;;;;;;;;;;;0.41;100.00;95153.03;10402586;28;20366;-84
2021/11/14 04:48:43;;;;;;;;;;;;;;;0.36;100.00;95160.72;10400139;28;20387;-79
2021/11/14 04:53:44;;;;;;;;;;;;;;;0.43;100.00;95151.00;10400344;28;19919;-76
2021/11/14 04:58:45;;;;;;;;;;;;;;;0.65;100.00;95154.28;10413894;28;20050;-78
2021/11/14 05:03:45;;;;;;;;;;;;;;;0.15;100.00;95159.88;10442991;28;19912;-76
2021/11/14 05:08:45;;;;;;;;;;;;;;;0.38;100.00;95174.56;10441274;28;19909;-73
2021/11/14 05:13:46;;;;;;;;;;;;;;;0.60;100.00;95179.72;10424616;28;19909;-74
2021/11/14 05:18:46;;;;;;;;;;;;;;;0.65;100.00;95186.03;10442069;28;19908;-78
2021/11/14 05:23:46;;;;;;;;;;;;;;;0.08;100.00;95185.41;10440867;28;19919;-77
2021/11/14 05:28:47;;;;;;;;;;;;;;;-0.14;100.00;95195.28;10441712;28;19909;-79
2021/11/14 05:33:47;;;;;;;;;;;;;;;-0.30;100.00;95199.03;10447989;28;19999;-77
2021/11/14 05:38:47;;;;;;;;;;;;;;;-0.40;100.00;95199.38;10449698;28;19945;-75
2021/11/14 05:43:48;;;;;;;;;;;;;;;-0.51;100.00;95207.84;10447802;28;19956;-74
2021/11/14 05:48:48;;;;;;;;;;;;;;;-0.52;100.00;95222.88;10448667;28;19912;-82
2021/11/14 05:53:48;;;;;;;;;;;;;;;-0.54;100.00;95230.16;10448615;28;19999;-75
2021/11/14 06:04:24;;;;;;;;;;;;;;;-0.66;100.00;95236.16;10387041;28;19913;-77
2021/11/14 06:09:25;;;;;;;;;;;;;;;-0.40;100.00;95236.34;10405899;28;19913;-76
2021/11/14 06:14:25;;;;;;;;;;;;;;;-0.04;100.00;95245.16;10407058;28;19928;-78
2021/11/14 06:19:26;;;;;;;;;;;;;;;0.09;100.00;95245.19;10422678;28;19916;-76
2021/11/14 06:24:26;;;;;;;;;;;;;;;0.14;100.00;95242.78;10407828;28;19935;-81
2021/11/14 06:29:26;;;;;;;;;;;;;;;0.27;100.00;95251.81;10407567;28;20012;-76
2021/11/14 06:34:27;;;;;;;;;;;;;;;0.32;100.00;95249.38;10408053;28;20348;-83
2021/11/14 06:39:27;;;;;;;;;;;;;;;0.32;100.00;95249.38;10405723;28;19947;-81
2021/11/14 06:44:27;;;;;;;;;;;;;;;0.47;100.00;95250.06;10403669;28;19956;-75
2021/11/14 06:49:28;;;;;;;;;;;;;;;0.68;100.00;95254.44;10405303;28;19959;-75
2021/11/14 06:54:28;;;;;;;;;;;;;;;0.64;100.00;95257.66;10403972;28;19913;-75
2021/11/14 06:59:28;;;;;;;;;;;;;;;0.98;100.00;95264.69;10403575;28;20297;-76
2021/11/14 07:04:29;;;;;;;;;;;;;;;1.65;100.00;95248.88;10403821;28;20405;-79
2021/11/14 07:09:29;;;;;;;;;;;;;;;2.08;100.00;95236.16;10403576;28;19916;-77
2021/11/14 07:14:30;;;;;;;;;;;;;;;2.33;100.00;95234.50;10402940;28;20290;-76
2021/11/14 07:19:30;;;;;;;;;;;;;;;2.41;100.00;95233.44;10432581;28;20374;-76
2021/11/14 07:24:30;;;;;;;;;;;;;;;2.37;100.00;95233.06;10436963;28;19970;-76
2021/11/14 07:29:31;;;;;;;;;;;;;;;1.79;100.00;95227.69;10402407;28;20007;-82
2021/11/14 07:34:31;;;;;;;;;;;;;;;1.96;100.00;95228.84;10402497;28;19909;-76
2021/11/14 07:39:32;;;;;;;;;;;;;;;1.86;100.00;95234.59;10401790;28;19925;-76
2021/11/14 07:44:32;;;;;;;;;;;;;;;1.75;100.00;95237.06;10402404;28;20281;-76
2021/11/14 07:49:32;;;;;;;;;;;;;;;2.21;100.00;95233.50;10402015;28;19935;-74
2021/11/14 07:54:32;;;;;;;;;;;;;;;2.48;100.00;95225.44;10424749;28;19908;-76
2021/11/14 07:59:33;;;;;;;;;;;;;;;3.22;100.00;95218.75;10442939;28;19909;-78
2021/11/14 08:04:33;;;;;;;;;;;;;;;3.94;100.00;95218.34;10442690;28;19919;-77
2021/11/14 08:09:33;;;;;;;;;;;;;;;4.44;100.00;95217.41;10419211;28;20330;-75
2021/11/14 08:14:34;;;;;;;;;;;;;;;4.85;100.00;95215.06;10408314;28;19920;-74
2021/11/14 08:19:34;;;;;;;;;;;;;;;5.32;100.00;95209.09;10399526;28;20465;-80
2021/11/14 08:24:35;;;;;;;;;;;;;;;5.95;100.00;95205.00;10399365;28;19917;-76
2021/11/14 08:29:35;;;;;;;;;;;;;;;6.44;100.00;95209.28;10371508;28;19968;-79
2021/11/14 08:34:35;;;;;;;;;;;;;;;6.59;100.00;95204.25;10358452;28;20438;-76
2021/11/14 08:39:36;;;;;;;;;;;;;;;6.52;100.00;95205.41;10365651;28;20011;-77
2021/11/14 08:44:36;;;;;;;;;;;;;;;6.54;100.00;95206.81;10440392;28;20378;-75
2021/11/14 08:49:37;;;;;;;;;;;;;;;6.47;100.00;95203.47;10440690;28;19908;-75
2021/11/14 08:54:38;;;;;;;;;;;;;;;7.14;100.00;95207.44;10363173;28;19992;-74
2021/11/14 08:59:38;;;;;;;;;;;;;;;7.60;100.00;95212.78;10357877;28;19917;-78
2021/11/14 09:04:39;;;;;;;;;;;;;;;7.76;100.00;95209.28;10384394;28;19924;-75
2021/11/14 09:09:40;;;;;;;;;;;;;;;8.02;100.00;95201.63;10423174;28;19932;-74
2021/11/14 09:14:40;;;;;;;;;;;;;;;8.85;100.00;95196.34;10408148;28;20418;-76
2021/11/14 09:19:41;;;;;;;;;;;;;;;9.92;100.00;95186.84;10418346;28;19924;-79
2021/11/14 09:24:41;;;;;;;;;;;;;;;9.82;100.00;95178.72;10453773;28;19927;-80
2021/11/14 09:29:42;;;;;;;;;;;;;;;10.20;99.56;95176.81;10449374;28;19909;-76
2021/11/14 09:34:42;;;;;;;;;;;;;;;10.29;97.29;95171.78;10441875;28;20491;-76
2021/11/14 09:39:42;;;;;;;;;;;;;;;10.68;88.87;95166.09;10405984;28;19925;-76
2021/11/14 09:44:43;;;;;;;;;;;;;;;11.29;82.64;95155.50;10406946;28;20485;-75
2021/11/14 09:49:43;;;;;;;;;;;;;;;11.74;79.38;95163.88;10406388;28;19909;-77
2021/11/14 09:54:44;;;;;;;;;;;;;;;11.80;76.53;95165.50;10405378;28;19913;-76
2021/11/14 09:59:44;;;;;;;;;;;;;;;12.14;71.42;95156.06;10404578;28;19939;-76
2021/11/14 10:04:44;;;;;;;;;;;;;;;13.48;62.55;95139.31;10404988;28;19913;-77
2021/11/14 10:09:49;;;;;;;;;;;;;;;15.02;54.81;95134.22;10420845;28;19909;-76
2021/11/14 10:14:51;;;;;;;;;;;;;;;17.41;45.57;95106.06;10433370;28;20296;-78
2021/11/14 10:20:12;;;;;;;;;;;;;;;19.27;41.33;95100.09;10445950;28;20018;-76
2021/11/14 10:25:13;;;;;;;;;;;;;;;20.90;37.84;95087.84;10445158;28;19917;-75
2021/11/14 10:30:14;;;;;;;;;;;;;;;21.54;36.72;95083.25;10381629;28;20017;-81
2021/11/14 10:35:14;;;;;;;;;;;;;;;21.83;35.39;95074.13;10362205;28;19913;-76
2021/11/14 10:40:18;;;;;;;;;;;;;;;21.82;35.04;95078.00;10387507;28;20314;-75
2021/11/14 10:45:20;;;;;;;;;;;;;;;22.73;33.27;95068.13;10417184;28;19917;-75
2021/11/14 10:50:21;;;;;;;;;;;;;;;22.13;34.02;95065.75;10404405;28;20322;-81
2021/11/14 10:55:21;;;;;;;;;;;;;;;22.69;33.75;95059.81;10402770;28;19919;-77
2021/11/14 11:00:23;;;;;;;;;;;;;;;22.59;32.83;95055.59;10403776;28;19910;-79
2021/11/14 11:05:25;;;;;;;;;;;;;;;21.92;34.50;95052.97;10405019;28;19913;-84
2021/11/14 11:10:30;;;;;;;;;;;;;;;21.70;34.93;95045.94;10402150;28;20436;-76
2021/11/14 11:15:37;;;;;;;;;;;;;;;22.29;33.45;95046.75;10403049;28;19909;-77
2021/11/14 11:20:38;;;;;;;;;;;;;;;21.43;34.38;95036.34;10401798;28;19924;-82
2021/11/14 11:25:38;;;;;;;;;;;;;;;21.44;33.99;95032.47;10402084;28;19920;-82
2021/11/14 11:30:43;;;;;;;;;;;;;;;21.37;34.26;95034.94;10401391;28;19913;-80
2021/11/14 11:35:44;;;;;;;;;;;;;;;19.11;38.11;95031.63;10400940;28;20564;-74
2021/11/14 11:40:44;;;;;;;;;;;;;;;16.82;42.19;95028.06;10401076;28;19920;-77
2021/11/14 11:45:46;;;;;;;;;;;;;;;15.21;45.00;95025.94;10400489;28;19920;-81
2021/11/14 11:50:46;;;;;;;;;;;;;;;13.24;53.44;95036.59;10428438;28;19947;-75
2021/11/14 11:55:47;;;;;;;;;;;;;;;12.16;61.23;95048.00;10442068;28;20476;-80
2021/11/14 12:00:49;;;;;;;;;;;;;;;11.85;65.47;95043.50;10435951;28;20482;-76
2021/11/14 12:05:49;;;;;;;;;;;;;;;11.23;75.30;95035.50;10399251;28;20370;-76
2021/11/14 12:10:56;;;;;;;;;;;;;;;10.93;75.30;95044.38;10416617;28;19909;-79
2021/11/14 12:16:00;;;;;;;;;;;;;;;10.81;77.13;95033.06;10360317;28;19913;-76
2021/11/14 12:21:00;;;;;;;;;;;;;;;10.86;75.14;95038.44;10375995;28;20422;-79
2021/11/14 12:26:06;;;;;;;;;;;;;;;10.75;76.90;95033.03;10386520;28;19986;-79
2021/11/14 12:31:11;;;;;;;;;;;;;;;10.53;79.45;95041.31;10399533;28;19909;-78
2021/11/14 12:36:19;;;;;;;;;;;;;;;10.53;80.53;95033.25;10398200;28;19921;-75
2021/11/14 12:41:20;;;;;;;;;;;;;;;10.52;80.93;95031.66;10401992;28;20281;-78
2021/11/14 12:46:25;;;;;;;;;;;;;;;10.55;80.55;95033.81;10398108;28;19928;-75
2021/11/14 12:51:26;;;;;;;;;;;;;;;10.57;81.09;95025.47;10399525;28;19917;-75
2021/11/14 12:56:27;;;;;;;;;;;;;;;10.46;81.48;95035.41;10398484;28;20031;-77
2021/11/14 13:01:30;;;;;;;;;;;;;;;10.40;81.92;95041.84;10399238;28;20034;-77
2021/11/14 13:06:33;;;;;;;;;;;;;;;10.42;80.31;95043.19;10397997;28;19971;-78
2021/11/14 13:11:35;;;;;;;;;;;;;;;10.23;80.72;95032.06;10425540;28;20015;-76
2021/11/14 13:16:36;;;;;;;;;;;;;;;10.30;81.48;95036.38;10439657;28;19909;-77
2021/11/14 13:21:37;;;;;;;;;;;;;;;10.24;82.34;95031.00;10439146;28;19913;-83
2021/11/14 13:26:39;;;;;;;;;;;;;;;10.21;81.68;95014.59;10376037;28;20474;-80
2021/11/14 13:31:40;;;;;;;;;;;;;;;10.19;80.70;95019.44;10383513;28;19916;-75
2021/11/14 13:36:51;;;;;;;;;;;;;;;9.99;83.55;95029.03;10412133;28;19932;-78
2021/11/14 13:41:59;;;;;;;;;;;;;;;9.87;86.25;95026.56;10439565;28;19967;-77
2021/11/14 13:47:01;;;;;;;;;;;;;;;9.85;86.57;95014.47;10438884;28;20003;-74
2021/11/14 13:52:03;;;;;;;;;;;;;;;9.80;87.58;95017.13;10443742;28;20365;-78
2021/11/14 13:57:03;;;;;;;;;;;;;;;9.77;87.14;95010.41;10432194;28;19920;-75
2021/11/14 14:02:06;;;;;;;;;;;;;;;9.76;86.38;95014.16;10404618;28;19909;-76
2021/11/14 14:07:06;;;;;;;;;;;;;;;9.63;87.50;95010.06;10415237;28;19917;-79
2021/11/14 14:12:16;;;;;;;;;;;;;;;9.62;89.62;95016.50;10404241;28;20325;-77
2021/11/14 14:17:17;;;;;;;;;;;;;;;9.50;90.35;95024.75;10405596;28;19915;-77
2021/11/14 14:22:18;;;;;;;;;;;;;;;9.39;90.26;95023.88;10402691;28;19920;-74
2021/11/14 14:27:23;;;;;;;;;;;;;;;9.27;92.31;95023.25;10404647;28;19913;-81
2021/11/14 14:32:23;;;;;;;;;;;;;;;9.17;92.69;95025.88;10403738;28;19913;-76
2021/11/14 14:37:23;;;;;;;;;;;;;;;9.12;95.83;95029.31;10404119;28;19921;-80
2021/11/14 14:42:23;;;;;;;;;;;;;;;9.09;97.20;95039.75;10403755;28;19916;-79
2021/11/14 14:47:24;;;;;;;;;;;;;;;8.96;97.83;95035.59;10403301;28;20379;-77
2021/11/14 14:52:24;;;;;;;;;;;;;;;8.93;99.60;95036.13;10403691;28;20353;-78
2021/11/14 14:57:24;;;;;;;;;;;;;;;8.83;98.89;95044.88;10403592;28;19909;-77
2021/11/14 15:02:25;;;;;;;;;;;;;;;8.78;100.00;95039.50;10403403;28;19962;-77
2021/11/14 15:07:25;;;;;;;;;;;;;;;8.65;100.00;95038.84;10423867;28;19928;-76
2021/11/14 15:12:29;;;;;;;;;;;;;;;8.47;100.00;95045.34;10418788;28;20314;-79
2021/11/14 15:17:31;;;;;;;;;;;;;;;8.43;100.00;95040.69;10404053;28;19916;-78
2021/11/14 15:22:33;;;;;;;;;;;;;;;8.36;100.00;95047.06;10366825;28;19917;-77
2021/11/14 15:27:34;;;;;;;;;;;;;;;8.20;100.00;95050.63;10427422;28;19920;-77
2021/11/14 15:32:34;;;;;;;;;;;;;;;8.06;100.00;95065.47;10435769;28;19912;-75
2021/11/14 15:37:34;;;;;;;;;;;;;;;7.92;100.00;95062.34;10439170;28;19928;-75
2021/11/14 15:42:35;;;;;;;;;;;;;;;7.72;100.00;95066.38;10409242;28;20003;-80
2021/11/14 15:47:35;;;;;;;;;;;;;;;7.62;100.00;95079.56;10435116;28;19913;-76
2021/11/14 15:52:41;;;;;;;;;;;;;;;7.53;100.00;95066.66;10420705;28;19917;-77
2021/11/14 15:57:42;;;;;;;;;;;;;;;7.04;100.00;95087.78;10401061;28;20427;-77
2021/11/14 16:02:43;;;;;;;;;;;;;;;7.16;100.00;95082.38;10416604;28;19979;-76
2021/11/14 16:07:43;;;;;;;;;;;;;;;7.13;100.00;95081.00;10359966;28;19972;-77
2021/11/14 16:12:46;;;;;;;;;;;;;;;7.16;100.00;95074.38;10374791;28;20422;-77
2021/11/14 16:17:47;;;;;;;;;;;;;;;7.17;100.00;95078.63;10358775;28;19913;-79
2021/11/14 16:22:51;;;;;;;;;;;;;;;7.09;100.00;95079.03;10394947;28;19951;-80
2021/11/14 16:27:53;;;;;;;;;;;;;;;7.10;100.00;95086.00;10399563;28;19917;-75
2021/11/14 16:32:54;;;;;;;;;;;;;;;7.05;100.00;95100.09;10398265;28;19915;-81
2021/11/14 16:37:56;;;;;;;;;;;;;;;7.07;100.00;95097.19;10399318;28;19921;-78
2021/11/14 16:42:57;;;;;;;;;;;;;;;7.17;100.00;95100.03;10400293;28;20010;-81
2021/11/14 16:47:58;;;;;;;;;;;;;;;7.22;100.00;95102.00;10398811;28;19913;-75
2021/11/14 16:52:58;;;;;;;;;;;;;;;7.19;100.00;95117.44;10400554;28;20342;-79
2021/11/14 16:57:59;;;;;;;;;;;;;;;7.19;100.00;95113.97;10401145;28;19915;-81
2021/11/14 17:03:01;;;;;;;;;;;;;;;7.09;100.00;95116.47;10398010;28;20008;-77
2021/11/14 17:08:01;;;;;;;;;;;;;;;7.22;100.00;95110.00;10358812;28;19913;-76
2021/11/14 17:13:01;;;;;;;;;;;;;;;7.27;100.00;95108.22;10373677;28;20314;-77
2021/11/14 17:18:02;;;;;;;;;;;;;;;7.16;100.00;95112.59;10397698;28;20286;-81
2021/11/14 17:23:02;;;;;;;;;;;;;;;7.17;100.00;95108.03;10424836;28;20421;-77
2021/11/14 17:28:02;;;;;;;;;;;;;;;7.08;100.00;95120.19;10404636;28;20371;-76
2021/11/14 17:33:03;;;;;;;;;;;;;;;7.02;100.00;95124.66;10422863;28;20378;-80
2021/11/14 17:38:05;;;;;;;;;;;;;;;6.88;100.00;95137.50;10423053;28;19921;-81
2021/11/14 17:43:06;;;;;;;;;;;;;;;6.73;100.00;95139.88;10380426;28;19997;-79
2021/11/14 17:48:06;;;;;;;;;;;;;;;6.81;100.00;95145.66;10381047;28;20389;-75
2021/11/14 17:53:07;;;;;;;;;;;;;;;6.83;100.00;95158.78;10365898;28;19996;-76
2021/11/14 17:58:07;;;;;;;;;;;;;;;6.80;100.00;95156.59;10389032;28;19909;-75
2021/11/14 18:03:09;;;;;;;;;;;;;;;6.57;100.00;95162.81;10392516;28;19913;-77
2021/11/14 18:08:10;;;;;;;;;;;;;;;6.52;100.00;95165.38;10422076;28;19943;-80
2021/11/14 18:13:10;;;;;;;;;;;;;;;6.49;100.00;95167.47;10427533;22;19925;-75
2021/11/14 18:18:11;;;;;;;;;;;;;;;6.29;100.00;95161.72;10379998;28;19913;-78
2021/11/14 18:23:11;;;;;;;;;;;;;;;6.33;100.00;95178.88;10379800;28;20358;-78
2021/11/14 18:28:15;;;;;;;;;;;;;;;6.36;100.00;95183.75;10363668;28;19917;-78
2021/11/14 18:33:18;;;;;;;;;;;;;;;6.40;100.00;95181.44;10363532;28;20004;-75
2021/11/14 18:38:18;;;;;;;;;;;;;;;6.37;100.00;95196.06;10384357;28;19916;-75
2021/11/14 18:43:19;;;;;;;;;;;;;;;6.29;100.00;95204.41;10404055;28;19932;-80
2021/11/14 18:48:19;;;;;;;;;;;;;;;6.14;100.00;95219.06;10404289;28;19917;-81
2021/11/14 18:53:20;;;;;;;;;;;;;;;6.12;100.00;95223.81;10404902;28;20028;-80
2021/11/14 18:58:21;;;;;;;;;;;;;;;6.19;100.00;95221.03;10403417;28;19916;-76
2021/11/14 19:03:21;;;;;;;;;;;;;;;6.09;100.00;95208.28;10411213;28;19919;-76
2021/11/14 19:08:21;;;;;;;;;;;;;;;5.92;100.00;95210.78;10438670;28;20305;-80
2021/11/14 19:13:22;;;;;;;;;;;;;;;5.92;100.00;95221.47;10403191;28;20413;-74
2021/11/14 19:18:22;;;;;;;;;;;;;;;5.87;100.00;95217.88;10384923;28;20243;-76
2021/11/14 19:23:23;;;;;;;;;;;;;;;5.87;100.00;95224.00;10385193;28;20426;-77
2021/11/14 19:28:25;;;;;;;;;;;;;;;5.86;100.00;95225.06;10403182;28;20010;-77
2021/11/14 19:33:25;;;;;;;;;;;;;;;5.88;100.00;95233.66;10385317;28;19924;-79
2021/11/14 19:38:27;;;;;;;;;;;;;;;5.84;100.00;95232.47;10402999;28;20394;-76
2021/11/14 19:43:28;;;;;;;;;;;;;;;5.78;100.00;95228.88;10383776;28;19913;-76
2021/11/14 19:48:28;;;;;;;;;;;;;;;5.65;100.00;95232.59;10561148;22;19931;-75
2021/11/14 19:53:28;;;;;;;;;;;;;;;5.69;100.00;95230.25;10458150;28;19919;-80
2021/11/14 19:58:29;;;;;;;;;;;;;;;5.46;100.00;95236.38;10442541;28;19912;-76
2021/11/14 20:03:29;;;;;;;;;;;;;;;5.29;100.00;95247.69;10442609;28;19923;-76
2021/11/14 20:08:30;;;;;;;;;;;;;;;5.01;100.00;95239.44;10434743;28;19912;-79
2021/11/14 20:13:31;;;;;;;;;;;;;;;5.03;100.00;95248.03;10467173;28;20373;-78
2021/11/14 20:18:31;;;;;;;;;;;;;;;5.06;100.00;95244.94;10466391;28;19909;-77
2021/11/14 20:23:34;;;;;;;;;;;;;;;5.16;100.00;95239.84;10466325;28;20367;-76
2021/11/14 20:28:34;;;;;;;;;;;;;;;5.19;100.00;95239.44;10465692;28;19916;-81
2021/11/14 20:33:36;;;;;;;;;;;;;;;5.14;100.00;95249.94;10484093;28;19908;-76
2021/11/14 20:38:37;;;;;;;;;;;;;;;5.01;100.00;95255.44;10466289;28;20408;-80
2021/11/14 20:43:37;;;;;;;;;;;;;;;5.06;100.00;95248.41;10449268;28;19927;-77
2021/11/14 20:48:38;;;;;;;;;;;;;;;5.03;100.00;95253.38;10465492;28;19924;-76
2021/11/14 20:53:39;;;;;;;;;;;;;;;5.05;100.00;95252.13;10484040;28;19931;-75
2021/11/14 20:58:39;;;;;;;;;;;;;;;5.02;100.00;95254.41;10468287;28;19918;-80
2021/11/14 21:03:41;;;;;;;;;;;;;;;5.01;100.00;95258.09;10473969;28;20293;-77
2021/11/14 21:08:41;;;;;;;;;;;;;;;4.96;100.00;95256.13;10473962;28;20011;-78
2021/11/14 21:13:43;;;;;;;;;;;;;;;4.96;100.00;95256.91;10474219;28;20430;-76
2021/11/14 21:18:43;;;;;;;;;;;;;;;5.05;100.00;95260.09;10473765;28;19912;-79
2021/11/14 21:23:44;;;;;;;;;;;;;;;5.09;100.00;95269.28;10473181;28;20378;-78
2021/11/14 21:28:44;;;;;;;;;;;;;;;5.14;100.00;95276.59;10473387;28;20357;-81
2021/11/14 21:38:47;;;;;;;;;;;;;;;5.01;100.00;95285.56;10490724;28;19912;-79
2021/11/14 21:43:48;;;;;;;;;;;;;;;4.99;100.00;95287.63;10490747;28;19912;-75
2021/11/14 21:48:48;;;;;;;;;;;;;;;4.74;100.00;95282.41;10471459;28;20007;-78
2021/11/14 21:53:48;;;;;;;;;;;;;;;4.26;100.00;95295.38;10472427;28;19999;-80
2021/11/14 21:58:49;;;;;;;;;;;;;;;4.33;100.00;95298.00;10493305;28;19908;-76
2021/11/14 22:03:49;;;;;;;;;;;;;;;4.23;100.00;95295.84;10468679;28;20007;-75
2021/11/14 22:08:50;;;;;;;;;;;;;;;4.23;100.00;95301.16;10447616;28;19916;-80
2021/11/14 22:13:50;;;;;;;;;;;;;;;3.92;100.00;95300.19;10456923;28;20274;-77
2021/11/14 22:18:53;;;;;;;;;;;;;;;3.59;100.00;95309.22;10446860;28;19992;-80
2021/11/14 22:23:53;;;;;;;;;;;;;;;3.43;100.00;95307.06;10430288;28;20239;-76
2021/11/14 22:28:53;;;;;;;;;;;;;;;3.28;100.00;95309.22;10429939;28;19913;-78
2021/11/14 22:33:54;;;;;;;;;;;;;;;3.20;100.00;95319.06;10430056;28;20361;-75
2021/11/14 22:38:54;;;;;;;;;;;;;;;3.11;100.00;95322.97;10429795;28;20304;-75
2021/11/14 22:43:56;;;;;;;;;;;;;;;3.06;100.00;95320.97;10445903;28;19964;-78
2021/11/14 22:48:56;;;;;;;;;;;;;;;3.08;100.00;95315.44;10446138;28;19951;-79
2021/11/14 22:53:56;;;;;;;;;;;;;;;3.15;100.00;95320.72;10445267;28;19908;-75
2021/11/14 22:58:57;;;;;;;;;;;;;;;3.19;100.00;95321.94;10445168;28;19908;-79
2021/11/14 23:03:57;;;;;;;;;;;;;;;3.14;100.00;95329.72;10445291;28;19947;-76
2021/11/14 23:09:02;;;;;;;;;;;;;;;3.04;100.00;95323.03;10444579;28;19948;-75
2021/11/14 23:14:04;;;;;;;;;;;;;;;3.02;100.00;95317.09;10457014;28;19908;-80
2021/11/14 23:19:04;;;;;;;;;;;;;;;3.15;100.00;95323.38;10487085;28;19915;-75
2021/11/14 23:24:05;;;;;;;;;;;;;;;3.06;100.00;95320.16;10450062;28;20219;-76
2021/11/14 23:29:05;;;;;;;;;;;;;;;3.18;100.00;95329.09;10468581;28;19987;-79
2021/11/14 23:34:06;;;;;;;;;;;;;;;3.01;100.00;95335.91;10486544;28;19918;-75
2021/11/14 23:39:08;;;;;;;;;;;;;;;2.87;100.00;95335.13;10468696;28;19908;-75
2021/11/14 23:44:17;;;;;;;;;;;;;;;2.91;100.00;95337.16;10467402;28;20274;-75
2021/11/14 23:49:18;;;;;;;;;;;;;;;2.96;100.00;95339.19;10463299;28;19939;-75
2021/11/14 23:54:19;;;;;;;;;;;;;;;2.91;100.00;95337.16;10443291;28;19908;-77
2021/11/14 23:59:19;;;;;;;;;;;;;;;2.78;100.00;95328.41;10443906;28;20359;-80
